Aviation Digital Data Service (ADDS)

Output produced by METARs form (1552 UTC 28 April 2017)
found at http://aviationweather.gov/adds/metars/
 
KRWI 281319Z 2813/2912 19005KT P6SM BKN015 OVC020 
     TEMPO 2814/2816 SCT025 
     FM281600 21005KT P6SM SCT025 
     FM281800 21012KT P6SM BKN035 
     FM290000 21005KT P6SM SKC 
     TEMPO 2908/2912 BKN009